sensor_id;sensor_type;location;lat;lon;timestamp;P1;durP1;ratioP1;P2;durP2;ratioP2
32333;SDS011;18810;53.040;8.850;2022-12-24T00:00:00;35.65;;;17.90;;
32333;SDS011;18810;53.040;8.850;2022-12-24T00:02:26;32.78;;;16.85;;
32333;SDS011;18810;53.040;8.850;2022-12-24T00:04:52;35.60;;;17.45;;
32333;SDS011;18810;53.040;8.850;2022-12-24T00:07:18;35.00;;;16.75;;
32333;SDS011;18810;53.040;8.850;2022-12-24T00:09:43;32.47;;;16.15;;
32333;SDS011;18810;53.040;8.850;2022-12-24T00:12:09;32.05;;;17.10;;
32333;SDS011;18810;53.040;8.850;2022-12-24T00:14:35;29.98;;;15.48;;
32333;SDS011;18810;53.040;8.850;2022-12-24T00:17:00;35.17;;;17.05;;
32333;SDS011;18810;53.040;8.850;2022-12-24T00:19:26;33.75;;;16.15;;
32333;SDS011;18810;53.040;8.850;2022-12-24T00:21:52;33.65;;;17.15;;
32333;SDS011;18810;53.040;8.850;2022-12-24T00:24:17;31.48;;;15.95;;
32333;SDS011;18810;53.040;8.850;2022-12-24T00:26:43;32.30;;;16.05;;
32333;SDS011;18810;53.040;8.850;2022-12-24T00:29:09;26.83;;;15.52;;
32333;SDS011;18810;53.040;8.850;2022-12-24T00:31:35;27.52;;;14.68;;
32333;SDS011;18810;53.040;8.850;2022-12-24T00:34:01;33.30;;;15.82;;
32333;SDS011;18810;53.040;8.850;2022-12-24T00:36:27;33.80;;;15.95;;
32333;SDS011;18810;53.040;8.850;2022-12-24T00:38:52;29.65;;;15.63;;
32333;SDS011;18810;53.040;8.850;2022-12-24T00:41:18;29.42;;;16.00;;
32333;SDS011;18810;53.040;8.850;2022-12-24T00:46:19;33.00;;;15.82;;
32333;SDS011;18810;53.040;8.850;2022-12-24T00:48:46;31.83;;;16.63;;
32333;SDS011;18810;53.040;8.850;2022-12-24T00:51:12;32.72;;;17.33;;
32333;SDS011;18810;53.040;8.850;2022-12-24T00:53:37;30.00;;;16.73;;
32333;SDS011;18810;53.040;8.850;2022-12-24T00:56:04;30.33;;;16.25;;
32333;SDS011;18810;53.040;8.850;2022-12-24T00:58:30;25.70;;;14.18;;
32333;SDS011;18810;53.040;8.850;2022-12-24T01:00:56;28.33;;;14.75;;
32333;SDS011;18810;53.040;8.850;2022-12-24T01:03:22;33.50;;;15.80;;
32333;SDS011;18810;53.040;8.850;2022-12-24T01:05:58;29.92;;;15.80;;
32333;SDS011;18810;53.040;8.850;2022-12-24T01:08:24;26.35;;;14.30;;
32333;SDS011;18810;53.040;8.850;2022-12-24T01:10:49;30.35;;;15.60;;
32333;SDS011;18810;53.040;8.850;2022-12-24T01:13:15;27.40;;;14.68;;
32333;SDS011;18810;53.040;8.850;2022-12-24T01:15:41;33.65;;;15.52;;
32333;SDS011;18810;53.040;8.850;2022-12-24T01:18:06;27.08;;;13.70;;
32333;SDS011;18810;53.040;8.850;2022-12-24T01:20:32;31.08;;;16.48;;
32333;SDS011;18810;53.040;8.850;2022-12-24T01:22:58;32.70;;;15.15;;
32333;SDS011;18810;53.040;8.850;2022-12-24T01:25:24;31.60;;;16.42;;
32333;SDS011;18810;53.040;8.850;2022-12-24T01:27:50;28.05;;;15.27;;
32333;SDS011;18810;53.040;8.850;2022-12-24T01:30:15;29.85;;;15.50;;
32333;SDS011;18810;53.040;8.850;2022-12-24T01:32:41;27.17;;;14.13;;
32333;SDS011;18810;53.040;8.850;2022-12-24T01:35:07;29.55;;;15.35;;
32333;SDS011;18810;53.040;8.850;2022-12-24T01:37:34;25.60;;;14.10;;
32333;SDS011;18810;53.040;8.850;2022-12-24T01:39:59;27.77;;;15.18;;
32333;SDS011;18810;53.040;8.850;2022-12-24T01:42:44;27.40;;;15.20;;
32333;SDS011;18810;53.040;8.850;2022-12-24T01:48:06;32.20;;;14.93;;
32333;SDS011;18810;53.040;8.850;2022-12-24T01:50:38;26.08;;;13.98;;
32333;SDS011;18810;53.040;8.850;2022-12-24T01:53:04;25.58;;;13.25;;
32333;SDS011;18810;53.040;8.850;2022-12-24T01:55:31;29.40;;;15.05;;
32333;SDS011;18810;53.040;8.850;2022-12-24T01:57:57;24.70;;;13.85;;
32333;SDS011;18810;53.040;8.850;2022-12-24T02:00:24;25.52;;;13.32;;
32333;SDS011;18810;53.040;8.850;2022-12-24T02:02:50;23.40;;;13.30;;
32333;SDS011;18810;53.040;8.850;2022-12-24T02:08:08;27.42;;;13.52;;
32333;SDS011;18810;53.040;8.850;2022-12-24T02:10:33;22.83;;;13.15;;
32333;SDS011;18810;53.040;8.850;2022-12-24T02:12:59;25.05;;;12.63;;
32333;SDS011;18810;53.040;8.850;2022-12-24T02:15:27;21.60;;;12.35;;
32333;SDS011;18810;53.040;8.850;2022-12-24T02:18:02;22.58;;;12.60;;
32333;SDS011;18810;53.040;8.850;2022-12-24T02:23:41;24.63;;;12.75;;
32333;SDS011;18810;53.040;8.850;2022-12-24T02:32:04;21.13;;;11.60;;
32333;SDS011;18810;53.040;8.850;2022-12-24T02:34:39;25.27;;;11.13;;
32333;SDS011;18810;53.040;8.850;2022-12-24T02:42:41;21.52;;;11.13;;
32333;SDS011;18810;53.040;8.850;2022-12-24T02:45:12;20.95;;;10.82;;
32333;SDS011;18810;53.040;8.850;2022-12-24T02:47:41;20.38;;;10.10;;
32333;SDS011;18810;53.040;8.850;2022-12-24T02:50:10;18.25;;;10.07;;
32333;SDS011;18810;53.040;8.850;2022-12-24T02:52:38;19.52;;;10.05;;
32333;SDS011;18810;53.040;8.850;2022-12-24T02:55:19;18.73;;;10.45;;
32333;SDS011;18810;53.040;8.850;2022-12-24T02:58:20;21.63;;;10.25;;
32333;SDS011;18810;53.040;8.850;2022-12-24T03:01:26;20.58;;;10.02;;
32333;SDS011;18810;53.040;8.850;2022-12-24T03:12:32;18.63;;;9.85;;
32333;SDS011;18810;53.040;8.850;2022-12-24T03:15:04;18.08;;;9.45;;
32333;SDS011;18810;53.040;8.850;2022-12-24T03:17:33;20.80;;;9.73;;
32333;SDS011;18810;53.040;8.850;2022-12-24T03:20:02;16.13;;;9.07;;
32333;SDS011;18810;53.040;8.850;2022-12-24T03:22:32;18.00;;;9.95;;
32333;SDS011;18810;53.040;8.850;2022-12-24T03:24:59;20.55;;;10.40;;
32333;SDS011;18810;53.040;8.850;2022-12-24T03:27:26;18.05;;;9.88;;
32333;SDS011;18810;53.040;8.850;2022-12-24T03:29:54;16.98;;;10.10;;
32333;SDS011;18810;53.040;8.850;2022-12-24T03:32:24;23.95;;;11.07;;
32333;SDS011;18810;53.040;8.850;2022-12-24T03:34:53;17.88;;;10.70;;
32333;SDS011;18810;53.040;8.850;2022-12-24T03:37:20;21.77;;;10.80;;
32333;SDS011;18810;53.040;8.850;2022-12-24T03:39:46;17.95;;;10.23;;
32333;SDS011;18810;53.040;8.850;2022-12-24T03:42:15;17.38;;;9.18;;
32333;SDS011;18810;53.040;8.850;2022-12-24T03:44:41;19.15;;;9.95;;
32333;SDS011;18810;53.040;8.850;2022-12-24T03:47:06;16.13;;;9.57;;
32333;SDS011;18810;53.040;8.850;2022-12-24T03:49:32;16.63;;;9.98;;
32333;SDS011;18810;53.040;8.850;2022-12-24T03:51:58;22.13;;;10.40;;
32333;SDS011;18810;53.040;8.850;2022-12-24T03:54:23;14.80;;;9.48;;
32333;SDS011;18810;53.040;8.850;2022-12-24T03:56:49;16.60;;;9.68;;
32333;SDS011;18810;53.040;8.850;2022-12-24T03:59:15;15.52;;;9.77;;
32333;SDS011;18810;53.040;8.850;2022-12-24T04:01:40;14.77;;;9.73;;
32333;SDS011;18810;53.040;8.850;2022-12-24T04:04:06;15.57;;;8.82;;
32333;SDS011;18810;53.040;8.850;2022-12-24T04:06:32;14.27;;;9.52;;
32333;SDS011;18810;53.040;8.850;2022-12-24T04:08:57;15.32;;;9.07;;
32333;SDS011;18810;53.040;8.850;2022-12-24T04:11:25;15.93;;;9.75;;
32333;SDS011;18810;53.040;8.850;2022-12-24T04:13:51;14.65;;;9.95;;
32333;SDS011;18810;53.040;8.850;2022-12-24T04:16:17;13.80;;;8.55;;
32333;SDS011;18810;53.040;8.850;2022-12-24T04:18:43;16.88;;;10.25;;
32333;SDS011;18810;53.040;8.850;2022-12-24T04:21:09;19.45;;;11.05;;
32333;SDS011;18810;53.040;8.850;2022-12-24T04:23:36;15.18;;;9.15;;
32333;SDS011;18810;53.040;8.850;2022-12-24T04:26:03;15.45;;;9.77;;
32333;SDS011;18810;53.040;8.850;2022-12-24T04:28:31;15.38;;;10.13;;
32333;SDS011;18810;53.040;8.850;2022-12-24T04:30:58;15.95;;;9.20;;
32333;SDS011;18810;53.040;8.850;2022-12-24T04:33:24;16.80;;;10.30;;
32333;SDS011;18810;53.040;8.850;2022-12-24T04:35:51;19.05;;;11.07;;
32333;SDS011;18810;53.040;8.850;2022-12-24T04:38:16;19.17;;;10.95;;
32333;SDS011;18810;53.040;8.850;2022-12-24T04:40:43;18.70;;;10.98;;
32333;SDS011;18810;53.040;8.850;2022-12-24T04:43:08;20.67;;;10.93;;
32333;SDS011;18810;53.040;8.850;2022-12-24T04:45:34;18.13;;;11.35;;
32333;SDS011;18810;53.040;8.850;2022-12-24T04:48:00;20.92;;;11.45;;
32333;SDS011;18810;53.040;8.850;2022-12-24T04:50:25;18.30;;;11.40;;
32333;SDS011;18810;53.040;8.850;2022-12-24T04:52:51;17.27;;;10.60;;
32333;SDS011;18810;53.040;8.850;2022-12-24T04:55:20;23.08;;;13.88;;
32333;SDS011;18810;53.040;8.850;2022-12-24T04:57:45;26.73;;;13.77;;
32333;SDS011;18810;53.040;8.850;2022-12-24T05:00:11;28.58;;;15.63;;
32333;SDS011;18810;53.040;8.850;2022-12-24T05:02:37;26.08;;;13.82;;
32333;SDS011;18810;53.040;8.850;2022-12-24T05:05:03;28.70;;;14.23;;
32333;SDS011;18810;53.040;8.850;2022-12-24T05:07:29;37.40;;;17.45;;
32333;SDS011;18810;53.040;8.850;2022-12-24T05:09:55;36.38;;;18.42;;
32333;SDS011;18810;53.040;8.850;2022-12-24T05:12:20;43.55;;;18.02;;
32333;SDS011;18810;53.040;8.850;2022-12-24T05:14:46;41.45;;;20.15;;
32333;SDS011;18810;53.040;8.850;2022-12-24T05:17:11;50.25;;;22.08;;
32333;SDS011;18810;53.040;8.850;2022-12-24T05:19:37;53.28;;;21.73;;
32333;SDS011;18810;53.040;8.850;2022-12-24T05:22:03;50.00;;;22.52;;
32333;SDS011;18810;53.040;8.850;2022-12-24T05:24:47;47.45;;;23.10;;
32333;SDS011;18810;53.040;8.850;2022-12-24T05:27:31;53.03;;;25.05;;
32333;SDS011;18810;53.040;8.850;2022-12-24T05:29:57;62.42;;;25.35;;
32333;SDS011;18810;53.040;8.850;2022-12-24T05:32:22;54.15;;;24.27;;
32333;SDS011;18810;53.040;8.850;2022-12-24T05:34:48;55.75;;;24.13;;
32333;SDS011;18810;53.040;8.850;2022-12-24T05:37:14;59.67;;;25.33;;
32333;SDS011;18810;53.040;8.850;2022-12-24T05:39:40;61.30;;;26.80;;
32333;SDS011;18810;53.040;8.850;2022-12-24T05:42:05;62.83;;;26.92;;
32333;SDS011;18810;53.040;8.850;2022-12-24T05:44:31;58.78;;;26.27;;
32333;SDS011;18810;53.040;8.850;2022-12-24T05:46:57;65.78;;;27.23;;
32333;SDS011;18810;53.040;8.850;2022-12-24T05:49:22;63.97;;;27.48;;
32333;SDS011;18810;53.040;8.850;2022-12-24T05:51:48;67.10;;;25.63;;
32333;SDS011;18810;53.040;8.850;2022-12-24T05:54:14;63.88;;;25.75;;
32333;SDS011;18810;53.040;8.850;2022-12-24T05:56:39;57.50;;;24.33;;
32333;SDS011;18810;53.040;8.850;2022-12-24T05:59:05;51.22;;;22.10;;
32333;SDS011;18810;53.040;8.850;2022-12-24T06:01:31;53.63;;;22.10;;
32333;SDS011;18810;53.040;8.850;2022-12-24T06:03:57;49.95;;;21.45;;
32333;SDS011;18810;53.040;8.850;2022-12-24T06:06:23;44.00;;;19.80;;
32333;SDS011;18810;53.040;8.850;2022-12-24T06:08:51;40.40;;;19.55;;
32333;SDS011;18810;53.040;8.850;2022-12-24T06:11:18;37.65;;;18.38;;
32333;SDS011;18810;53.040;8.850;2022-12-24T06:13:46;44.58;;;18.55;;
32333;SDS011;18810;53.040;8.850;2022-12-24T06:16:13;42.38;;;18.40;;
32333;SDS011;18810;53.040;8.850;2022-12-24T06:18:40;41.53;;;19.02;;
32333;SDS011;18810;53.040;8.850;2022-12-24T06:21:06;41.85;;;18.20;;
32333;SDS011;18810;53.040;8.850;2022-12-24T06:23:33;41.67;;;16.85;;
32333;SDS011;18810;53.040;8.850;2022-12-24T06:26:01;38.83;;;16.80;;
32333;SDS011;18810;53.040;8.850;2022-12-24T06:28:32;43.63;;;16.17;;
32333;SDS011;18810;53.040;8.850;2022-12-24T06:31:00;34.58;;;15.88;;
32333;SDS011;18810;53.040;8.850;2022-12-24T06:33:26;43.58;;;17.45;;
32333;SDS011;18810;53.040;8.850;2022-12-24T06:35:52;39.83;;;14.88;;
32333;SDS011;18810;53.040;8.850;2022-12-24T06:38:18;41.58;;;16.90;;
32333;SDS011;18810;53.040;8.850;2022-12-24T06:40:44;45.67;;;16.40;;
32333;SDS011;18810;53.040;8.850;2022-12-24T06:43:11;40.65;;;15.88;;
32333;SDS011;18810;53.040;8.850;2022-12-24T06:45:37;39.53;;;15.90;;
32333;SDS011;18810;53.040;8.850;2022-12-24T06:48:04;37.72;;;15.57;;
32333;SDS011;18810;53.040;8.850;2022-12-24T06:50:31;45.25;;;16.67;;
32333;SDS011;18810;53.040;8.850;2022-12-24T06:52:57;39.95;;;15.05;;
32333;SDS011;18810;53.040;8.850;2022-12-24T06:55:23;37.78;;;13.93;;
32333;SDS011;18810;53.040;8.850;2022-12-24T06:57:49;47.75;;;12.90;;
32333;SDS011;18810;53.040;8.850;2022-12-24T07:00:14;40.40;;;12.25;;
32333;SDS011;18810;53.040;8.850;2022-12-24T07:02:41;41.97;;;10.40;;
32333;SDS011;18810;53.040;8.850;2022-12-24T07:05:08;35.50;;;10.82;;
32333;SDS011;18810;53.040;8.850;2022-12-24T07:07:39;44.53;;;10.10;;
32333;SDS011;18810;53.040;8.850;2022-12-24T07:10:07;32.95;;;9.18;;
32333;SDS011;18810;53.040;8.850;2022-12-24T07:12:35;36.22;;;9.02;;
32333;SDS011;18810;53.040;8.850;2022-12-24T07:15:00;31.75;;;8.05;;
32333;SDS011;18810;53.040;8.850;2022-12-24T07:17:26;35.95;;;9.85;;
32333;SDS011;18810;53.040;8.850;2022-12-24T07:19:52;35.95;;;8.18;;
32333;SDS011;18810;53.040;8.850;2022-12-24T07:22:18;35.65;;;8.73;;
32333;SDS011;18810;53.040;8.850;2022-12-24T07:24:44;36.75;;;7.93;;
32333;SDS011;18810;53.040;8.850;2022-12-24T07:27:10;33.03;;;8.30;;
32333;SDS011;18810;53.040;8.850;2022-12-24T07:29:35;37.35;;;8.05;;
32333;SDS011;18810;53.040;8.850;2022-12-24T07:32:01;30.90;;;8.68;;
32333;SDS011;18810;53.040;8.850;2022-12-24T07:34:27;31.60;;;7.88;;
32333;SDS011;18810;53.040;8.850;2022-12-24T07:36:53;34.75;;;9.57;;
32333;SDS011;18810;53.040;8.850;2022-12-24T07:39:19;44.00;;;7.47;;
32333;SDS011;18810;53.040;8.850;2022-12-24T07:41:44;34.35;;;7.85;;
32333;SDS011;18810;53.040;8.850;2022-12-24T07:44:11;35.00;;;7.20;;
32333;SDS011;18810;53.040;8.850;2022-12-24T07:46:40;43.40;;;8.07;;
32333;SDS011;18810;53.040;8.850;2022-12-24T07:49:06;43.70;;;7.88;;
32333;SDS011;18810;53.040;8.850;2022-12-24T07:51:32;47.65;;;8.45;;
32333;SDS011;18810;53.040;8.850;2022-12-24T07:53:58;40.40;;;7.25;;
32333;SDS011;18810;53.040;8.850;2022-12-24T07:56:23;32.17;;;6.40;;
32333;SDS011;18810;53.040;8.850;2022-12-24T07:58:50;36.83;;;7.28;;
32333;SDS011;18810;53.040;8.850;2022-12-24T08:01:17;35.97;;;7.85;;
32333;SDS011;18810;53.040;8.850;2022-12-24T08:03:43;32.92;;;7.10;;
32333;SDS011;18810;53.040;8.850;2022-12-24T08:06:09;34.03;;;7.38;;
32333;SDS011;18810;53.040;8.850;2022-12-24T08:08:35;40.35;;;7.90;;
32333;SDS011;18810;53.040;8.850;2022-12-24T08:11:02;35.45;;;8.45;;
32333;SDS011;18810;53.040;8.850;2022-12-24T08:13:29;34.75;;;8.18;;
32333;SDS011;18810;53.040;8.850;2022-12-24T08:15:55;37.20;;;9.05;;
32333;SDS011;18810;53.040;8.850;2022-12-24T08:18:21;41.92;;;7.47;;
32333;SDS011;18810;53.040;8.850;2022-12-24T08:20:47;39.88;;;7.40;;
32333;SDS011;18810;53.040;8.850;2022-12-24T08:23:13;39.78;;;8.55;;
32333;SDS011;18810;53.040;8.850;2022-12-24T08:25:45;45.10;;;8.88;;
32333;SDS011;18810;53.040;8.850;2022-12-24T08:28:12;42.53;;;8.13;;
32333;SDS011;18810;53.040;8.850;2022-12-24T08:30:41;37.72;;;9.52;;
32333;SDS011;18810;53.040;8.850;2022-12-24T08:33:07;41.38;;;8.70;;
32333;SDS011;18810;53.040;8.850;2022-12-24T08:35:33;25.15;;;7.28;;
32333;SDS011;18810;53.040;8.850;2022-12-24T08:37:59;37.83;;;8.23;;
32333;SDS011;18810;53.040;8.850;2022-12-24T08:40:24;23.50;;;8.00;;
32333;SDS011;18810;53.040;8.850;2022-12-24T08:42:50;46.55;;;8.77;;
32333;SDS011;18810;53.040;8.850;2022-12-24T08:45:16;28.10;;;7.55;;
32333;SDS011;18810;53.040;8.850;2022-12-24T08:47:42;43.78;;;9.73;;
32333;SDS011;18810;53.040;8.850;2022-12-24T08:50:08;51.13;;;10.90;;
32333;SDS011;18810;53.040;8.850;2022-12-24T08:52:34;36.17;;;10.20;;
32333;SDS011;18810;53.040;8.850;2022-12-24T08:55:00;36.00;;;9.25;;
32333;SDS011;18810;53.040;8.850;2022-12-24T08:57:26;37.22;;;10.57;;
32333;SDS011;18810;53.040;8.850;2022-12-24T08:59:52;35.88;;;9.23;;
32333;SDS011;18810;53.040;8.850;2022-12-24T09:02:18;35.72;;;9.88;;
32333;SDS011;18810;53.040;8.850;2022-12-24T09:04:47;32.80;;;9.35;;
32333;SDS011;18810;53.040;8.850;2022-12-24T09:07:16;28.48;;;8.45;;
32333;SDS011;18810;53.040;8.850;2022-12-24T09:09:41;36.10;;;10.27;;
32333;SDS011;18810;53.040;8.850;2022-12-24T09:12:07;44.80;;;11.25;;
32333;SDS011;18810;53.040;8.850;2022-12-24T09:14:34;45.05;;;10.95;;
32333;SDS011;18810;53.040;8.850;2022-12-24T09:17:00;45.33;;;11.38;;
32333;SDS011;18810;53.040;8.850;2022-12-24T09:19:26;49.05;;;12.10;;
32333;SDS011;18810;53.040;8.850;2022-12-24T09:21:52;46.90;;;12.93;;
32333;SDS011;18810;53.040;8.850;2022-12-24T09:24:17;43.28;;;13.15;;
32333;SDS011;18810;53.040;8.850;2022-12-24T09:26:43;47.55;;;12.25;;
32333;SDS011;18810;53.040;8.850;2022-12-24T09:29:13;47.67;;;12.98;;
32333;SDS011;18810;53.040;8.850;2022-12-24T09:31:39;48.15;;;12.57;;
32333;SDS011;18810;53.040;8.850;2022-12-24T09:34:05;55.03;;;14.07;;
32333;SDS011;18810;53.040;8.850;2022-12-24T09:36:32;34.35;;;12.43;;
32333;SDS011;18810;53.040;8.850;2022-12-24T09:38:58;43.03;;;12.88;;
32333;SDS011;18810;53.040;8.850;2022-12-24T09:46:49;42.08;;;12.85;;
32333;SDS011;18810;53.040;8.850;2022-12-24T09:49:17;40.17;;;13.45;;
32333;SDS011;18810;53.040;8.850;2022-12-24T09:51:47;46.60;;;12.07;;
32333;SDS011;18810;53.040;8.850;2022-12-24T09:56:47;34.42;;;11.05;;
32333;SDS011;18810;53.040;8.850;2022-12-24T09:59:15;40.97;;;11.95;;
32333;SDS011;18810;53.040;8.850;2022-12-24T10:04:14;49.08;;;12.43;;
32333;SDS011;18810;53.040;8.850;2022-12-24T10:15:17;32.67;;;9.95;;
32333;SDS011;18810;53.040;8.850;2022-12-24T10:18:06;43.75;;;10.98;;
32333;SDS011;18810;53.040;8.850;2022-12-24T10:20:56;36.83;;;10.63;;
32333;SDS011;18810;53.040;8.850;2022-12-24T10:23:43;30.95;;;10.35;;
32333;SDS011;18810;53.040;8.850;2022-12-24T10:28:50;31.00;;;9.55;;
32333;SDS011;18810;53.040;8.850;2022-12-24T10:31:40;38.13;;;9.93;;
32333;SDS011;18810;53.040;8.850;2022-12-24T10:34:23;34.13;;;10.30;;
32333;SDS011;18810;53.040;8.850;2022-12-24T10:36:52;37.13;;;10.45;;
32333;SDS011;18810;53.040;8.850;2022-12-24T10:39:19;37.58;;;10.75;;
32333;SDS011;18810;53.040;8.850;2022-12-24T10:41:48;38.78;;;10.98;;
32333;SDS011;18810;53.040;8.850;2022-12-24T10:44:17;33.25;;;9.82;;
32333;SDS011;18810;53.040;8.850;2022-12-24T10:46:45;32.35;;;8.55;;
32333;SDS011;18810;53.040;8.850;2022-12-24T10:49:15;36.88;;;9.35;;
32333;SDS011;18810;53.040;8.850;2022-12-24T10:54:26;30.20;;;10.10;;
32333;SDS011;18810;53.040;8.850;2022-12-24T10:56:57;40.00;;;11.48;;
32333;SDS011;18810;53.040;8.850;2022-12-24T10:59:28;38.33;;;9.95;;
32333;SDS011;18810;53.040;8.850;2022-12-24T11:01:58;37.58;;;11.07;;
32333;SDS011;18810;53.040;8.850;2022-12-24T11:04:28;35.33;;;10.80;;
32333;SDS011;18810;53.040;8.850;2022-12-24T11:09:25;41.63;;;10.98;;
32333;SDS011;18810;53.040;8.850;2022-12-24T11:11:56;49.75;;;12.55;;
32333;SDS011;18810;53.040;8.850;2022-12-24T11:14:24;38.97;;;12.68;;
32333;SDS011;18810;53.040;8.850;2022-12-24T11:16:55;36.83;;;12.02;;
32333;SDS011;18810;53.040;8.850;2022-12-24T11:19:32;33.00;;;11.43;;
32333;SDS011;18810;53.040;8.850;2022-12-24T11:22:06;36.57;;;10.93;;
32333;SDS011;18810;53.040;8.850;2022-12-24T11:24:54;38.88;;;11.15;;
32333;SDS011;18810;53.040;8.850;2022-12-24T11:27:23;35.53;;;10.18;;
32333;SDS011;18810;53.040;8.850;2022-12-24T11:32:47;38.15;;;10.30;;
32333;SDS011;18810;53.040;8.850;2022-12-24T11:35:38;43.80;;;10.40;;
32333;SDS011;18810;53.040;8.850;2022-12-24T11:40:48;35.70;;;10.85;;
32333;SDS011;18810;53.040;8.850;2022-12-24T11:43:21;31.70;;;9.02;;
32333;SDS011;18810;53.040;8.850;2022-12-24T11:45:50;31.08;;;9.90;;
32333;SDS011;18810;53.040;8.850;2022-12-24T11:50:58;32.05;;;10.02;;
32333;SDS011;18810;53.040;8.850;2022-12-24T11:56:32;35.20;;;9.57;;
32333;SDS011;18810;53.040;8.850;2022-12-24T12:01:49;40.20;;;10.98;;
32333;SDS011;18810;53.040;8.850;2022-12-24T12:04:32;38.22;;;11.40;;
32333;SDS011;18810;53.040;8.850;2022-12-24T12:07:02;44.70;;;11.63;;
32333;SDS011;18810;53.040;8.850;2022-12-24T12:12:00;34.10;;;10.48;;
32333;SDS011;18810;53.040;8.850;2022-12-24T12:14:50;39.50;;;10.50;;
32333;SDS011;18810;53.040;8.850;2022-12-24T12:17:39;31.45;;;10.25;;
32333;SDS011;18810;53.040;8.850;2022-12-24T12:20:37;37.45;;;11.20;;
32333;SDS011;18810;53.040;8.850;2022-12-24T12:23:14;33.75;;;11.30;;
32333;SDS011;18810;53.040;8.850;2022-12-24T12:25:44;39.28;;;10.68;;
32333;SDS011;18810;53.040;8.850;2022-12-24T12:29:01;33.40;;;10.52;;
32333;SDS011;18810;53.040;8.850;2022-12-24T12:33:36;32.40;;;9.73;;
32333;SDS011;18810;53.040;8.850;2022-12-24T12:36:07;33.83;;;10.50;;
32333;SDS011;18810;53.040;8.850;2022-12-24T12:38:35;37.42;;;12.40;;
32333;SDS011;18810;53.040;8.850;2022-12-24T12:46:24;36.85;;;11.52;;
32333;SDS011;18810;53.040;8.850;2022-12-24T12:57:48;40.65;;;13.05;;
32333;SDS011;18810;53.040;8.850;2022-12-24T13:00:17;38.20;;;12.57;;
32333;SDS011;18810;53.040;8.850;2022-12-24T13:17:35;30.75;;;10.55;;
32333;SDS011;18810;53.040;8.850;2022-12-24T13:22:48;27.88;;;10.48;;
32333;SDS011;18810;53.040;8.850;2022-12-24T13:25:37;29.40;;;8.85;;
32333;SDS011;18810;53.040;8.850;2022-12-24T13:30:48;17.02;;;7.82;;
32333;SDS011;18810;53.040;8.850;2022-12-24T13:36:07;23.38;;;8.40;;
32333;SDS011;18810;53.040;8.850;2022-12-24T13:44:13;24.88;;;8.85;;
32333;SDS011;18810;53.040;8.850;2022-12-24T13:52:05;26.25;;;7.43;;
32333;SDS011;18810;53.040;8.850;2022-12-24T13:57:37;17.45;;;7.18;;
32333;SDS011;18810;53.040;8.850;2022-12-24T14:00:42;29.33;;;8.33;;
32333;SDS011;18810;53.040;8.850;2022-12-24T14:05:49;23.63;;;7.50;;
32333;SDS011;18810;53.040;8.850;2022-12-24T14:11:08;23.77;;;7.57;;
32333;SDS011;18810;53.040;8.850;2022-12-24T14:16:31;26.98;;;7.78;;
32333;SDS011;18810;53.040;8.850;2022-12-24T14:19:20;26.73;;;7.43;;
32333;SDS011;18810;53.040;8.850;2022-12-24T14:21:51;22.52;;;6.78;;
32333;SDS011;18810;53.040;8.850;2022-12-24T14:24:24;24.02;;;7.45;;
32333;SDS011;18810;53.040;8.850;2022-12-24T14:27:16;24.08;;;6.38;;
32333;SDS011;18810;53.040;8.850;2022-12-24T14:29:45;23.05;;;6.75;;
32333;SDS011;18810;53.040;8.850;2022-12-24T14:32:34;21.50;;;6.82;;
32333;SDS011;18810;53.040;8.850;2022-12-24T14:35:05;25.70;;;7.50;;
32333;SDS011;18810;53.040;8.850;2022-12-24T14:39:58;21.83;;;7.72;;
32333;SDS011;18810;53.040;8.850;2022-12-24T14:45:12;29.42;;;9.85;;
32333;SDS011;18810;53.040;8.850;2022-12-24T14:53:06;30.77;;;11.07;;
32333;SDS011;18810;53.040;8.850;2022-12-24T14:55:41;32.95;;;9.23;;
32333;SDS011;18810;53.040;8.850;2022-12-24T15:00:58;21.92;;;8.25;;
32333;SDS011;18810;53.040;8.850;2022-12-24T15:03:26;30.90;;;8.85;;
32333;SDS011;18810;53.040;8.850;2022-12-24T15:06:04;30.23;;;7.70;;
32333;SDS011;18810;53.040;8.850;2022-12-24T15:08:44;33.55;;;8.25;;
32333;SDS011;18810;53.040;8.850;2022-12-24T15:11:17;19.85;;;6.93;;
32333;SDS011;18810;53.040;8.850;2022-12-24T15:13:46;28.23;;;8.43;;
32333;SDS011;18810;53.040;8.850;2022-12-24T15:16:17;30.60;;;8.93;;
32333;SDS011;18810;53.040;8.850;2022-12-24T15:18:49;28.80;;;7.38;;
32333;SDS011;18810;53.040;8.850;2022-12-24T15:21:36;24.08;;;7.45;;
32333;SDS011;18810;53.040;8.850;2022-12-24T15:24:22;27.40;;;7.85;;
32333;SDS011;18810;53.040;8.850;2022-12-24T15:26:56;27.17;;;8.98;;
32333;SDS011;18810;53.040;8.850;2022-12-24T15:29:27;41.65;;;9.70;;
32333;SDS011;18810;53.040;8.850;2022-12-24T15:31:56;32.25;;;8.70;;
32333;SDS011;18810;53.040;8.850;2022-12-24T15:34:30;31.75;;;8.75;;
32333;SDS011;18810;53.040;8.850;2022-12-24T15:37:15;33.92;;;8.63;;
32333;SDS011;18810;53.040;8.850;2022-12-24T15:39:42;23.83;;;7.30;;
32333;SDS011;18810;53.040;8.850;2022-12-24T15:42:09;37.10;;;9.70;;
32333;SDS011;18810;53.040;8.850;2022-12-24T15:47:37;25.83;;;7.22;;
32333;SDS011;18810;53.040;8.850;2022-12-24T15:50:31;25.75;;;6.78;;
32333;SDS011;18810;53.040;8.850;2022-12-24T15:53:14;16.40;;;5.80;;
32333;SDS011;18810;53.040;8.850;2022-12-24T15:55:46;19.92;;;6.35;;
32333;SDS011;18810;53.040;8.850;2022-12-24T15:58:41;25.40;;;6.20;;
32333;SDS011;18810;53.040;8.850;2022-12-24T16:03:40;20.02;;;5.65;;
32333;SDS011;18810;53.040;8.850;2022-12-24T16:06:15;24.17;;;6.80;;
32333;SDS011;18810;53.040;8.850;2022-12-24T16:08:42;18.73;;;6.32;;
32333;SDS011;18810;53.040;8.850;2022-12-24T16:16:30;19.33;;;5.93;;
32333;SDS011;18810;53.040;8.850;2022-12-24T16:19:02;29.83;;;6.10;;
32333;SDS011;18810;53.040;8.850;2022-12-24T16:21:35;18.50;;;6.50;;
32333;SDS011;18810;53.040;8.850;2022-12-24T16:24:04;27.48;;;6.82;;
32333;SDS011;18810;53.040;8.850;2022-12-24T16:26:37;21.25;;;6.30;;
32333;SDS011;18810;53.040;8.850;2022-12-24T16:29:04;24.63;;;6.75;;
32333;SDS011;18810;53.040;8.850;2022-12-24T16:31:31;33.05;;;8.35;;
32333;SDS011;18810;53.040;8.850;2022-12-24T16:34:01;32.28;;;8.00;;
32333;SDS011;18810;53.040;8.850;2022-12-24T16:36:29;34.00;;;7.90;;
32333;SDS011;18810;53.040;8.850;2022-12-24T16:38:56;27.73;;;9.23;;
32333;SDS011;18810;53.040;8.850;2022-12-24T16:41:41;24.33;;;6.93;;
32333;SDS011;18810;53.040;8.850;2022-12-24T16:44:25;28.52;;;6.85;;
32333;SDS011;18810;53.040;8.850;2022-12-24T16:46:52;26.70;;;7.60;;
32333;SDS011;18810;53.040;8.850;2022-12-24T16:49:18;27.55;;;6.85;;
32333;SDS011;18810;53.040;8.850;2022-12-24T16:51:45;20.83;;;7.72;;
32333;SDS011;18810;53.040;8.850;2022-12-24T16:54:11;25.65;;;8.07;;
32333;SDS011;18810;53.040;8.850;2022-12-24T16:56:39;27.45;;;7.90;;
32333;SDS011;18810;53.040;8.850;2022-12-24T16:59:05;25.38;;;8.73;;
32333;SDS011;18810;53.040;8.850;2022-12-24T17:01:31;36.00;;;8.98;;
32333;SDS011;18810;53.040;8.850;2022-12-24T17:03:57;26.48;;;8.30;;
32333;SDS011;18810;53.040;8.850;2022-12-24T17:06:22;26.10;;;8.20;;
32333;SDS011;18810;53.040;8.850;2022-12-24T17:08:48;34.17;;;8.98;;
32333;SDS011;18810;53.040;8.850;2022-12-24T17:11:14;29.60;;;9.20;;
32333;SDS011;18810;53.040;8.850;2022-12-24T17:13:39;26.52;;;8.60;;
32333;SDS011;18810;53.040;8.850;2022-12-24T17:16:05;33.63;;;9.98;;
32333;SDS011;18810;53.040;8.850;2022-12-24T17:18:31;22.00;;;8.85;;